Time;durP1;ratioP1;P1;durP2;ratioP2;P2;SDS_P1;SDS_P2;PMS_P1;PMS_P2;Temp;Humidity;BMP_temperature;BMP_pressure;BME280_temperature;BME280_humidity;BME280_pressure;Samples;Min_cycle;Max_cycle;Signal;HPM_P1;HPM_P2
2023/09/16 00:00:48;;;;;;;2.70;2.50;;;24.10;44.20;;;;;;5030142;28;20732;-61
2023/09/16 00:03:13;;;;;;;3.83;2.20;;;24.10;44.20;;;;;;5028811;28;20200;-60
2023/09/16 00:05:39;;;;;;;2.63;2.53;;;24.10;44.20;;;;;;5027631;28;20235;-63
2023/09/16 00:08:05;;;;;;;3.27;3.07;;;24.10;44.20;;;;;;5027402;28;20198;-61
2023/09/16 00:10:31;;;;;;;3.00;2.80;;;24.10;44.20;;;;;;5025376;28;20209;-63
2023/09/16 00:12:57;;;;;;;2.60;2.50;;;24.10;44.20;;;;;;5029525;28;20488;-63
2023/09/16 00:15:23;;;;;;;2.30;2.20;;;24.10;44.20;;;;;;5028431;28;20444;-62
2023/09/16 00:17:48;;;;;;;2.87;2.70;;;24.10;44.20;;;;;;5028924;28;20629;-61
2023/09/16 00:20:17;;;;;;;3.10;2.90;;;24.10;44.30;;;;;;5030149;28;20189;-60
2023/09/16 00:22:43;;;;;;;2.10;2.00;;;24.10;44.30;;;;;;5030948;28;20340;-61
2023/09/16 00:25:10;;;;;;;3.07;2.87;;;24.10;44.30;;;;;;5024780;28;20752;-61
2023/09/16 00:27:39;;;;;;;2.70;2.60;;;24.10;44.30;;;;;;5028165;28;20428;-58
2023/09/16 00:30:05;;;;;;;2.80;2.60;;;24.10;44.30;;;;;;5028113;28;20423;-62
2023/09/16 00:32:31;;;;;;;3.07;2.87;;;24.10;44.30;;;;;;5027234;28;20438;-65
2023/09/16 00:34:57;;;;;;;2.67;2.57;;;24.10;44.30;;;;;;5028990;28;20434;-60
2023/09/16 00:37:23;;;;;;;3.10;3.00;;;24.10;44.30;;;;;;5028497;28;20467;-65
2023/09/16 00:39:48;;;;;;;2.67;2.57;;;24.10;45.10;;;;;;5026944;28;20308;-61
2023/09/16 00:42:15;;;;;;;2.60;2.50;;;24.10;44.30;;;;;;5028970;28;20251;-62
2023/09/16 00:44:41;;;;;;;3.00;2.80;;;24.10;44.40;;;;;;5028138;28;20225;-61
2023/09/16 00:47:07;;;;;;;2.93;2.73;;;24.10;44.30;;;;;;5029268;28;20852;-61
2023/09/16 00:49:33;;;;;;;3.40;3.20;;;24.10;44.40;;;;;;5029136;28;20194;-65
2023/09/16 00:51:59;;;;;;;3.00;2.77;;;24.10;44.40;;;;;;5028589;28;20193;-63
2023/09/16 00:54:25;;;;;;;3.30;3.20;;;24.10;44.30;;;;;;5031306;28;20201;-61
2023/09/16 00:56:52;;;;;;;3.10;3.00;;;24.10;44.40;;;;;;5023844;28;20588;-59
2023/09/16 00:59:22;;;;;;;3.00;2.80;;;24.10;44.40;;;;;;5028679;28;20443;-63
2023/09/16 01:01:51;;;;;;;2.80;2.60;;;24.10;44.40;;;;;;5030874;28;20531;-60
2023/09/16 01:04:18;;;;;;;3.30;3.10;;;24.10;44.50;;;;;;5024324;28;20601;-61
2023/09/16 01:06:44;;;;;;;3.27;2.93;;;24.10;44.40;;;;;;5031700;28;22278;-59
2023/09/16 01:09:15;;;;;;;3.47;3.27;;;24.10;44.40;;;;;;5029375;28;20457;-58
2023/09/16 01:11:41;;;;;;;3.43;3.23;;;24.10;44.40;;;;;;5031989;28;20189;-61
2023/09/16 01:14:11;;;;;;;3.10;2.90;;;24.10;44.40;;;;;;5031863;28;20817;-60
2023/09/16 01:16:46;;;;;;;2.63;2.53;;;24.10;44.40;;;;;;5027604;28;20297;-63
2023/09/16 01:19:40;;;;;;;3.27;3.07;;;24.10;44.50;;;;;;5027223;28;20454;-59
2023/09/16 01:22:07;;;;;;;3.10;2.90;;;24.10;44.50;;;;;;5027956;28;20435;-59
2023/09/16 01:24:33;;;;;;;2.90;2.80;;;24.10;44.50;;;;;;5030109;28;20465;-60
2023/09/16 01:26:58;;;;;;;2.80;2.70;;;24.10;44.50;;;;;;5027115;28;20978;-60
2023/09/16 01:29:25;;;;;;;3.17;2.97;;;24.10;44.50;;;;;;5027579;28;20227;-60
2023/09/16 01:31:51;;;;;;;3.43;3.23;;;24.10;44.60;;;;;;5026839;28;20213;-64
2023/09/16 01:34:32;;;;;;;2.80;2.70;;;24.10;44.60;;;;;;5026872;28;20571;-64
2023/09/16 01:36:59;;;;;;;3.10;3.00;;;24.10;44.50;;;;;;5033647;28;20438;-63
2023/09/16 01:39:28;;;;;;;3.10;2.90;;;24.10;44.50;;;;;;5028902;28;20441;-61
2023/09/16 01:41:55;;;;;;;3.37;3.07;;;24.10;44.60;;;;;;5029882;28;20442;-64
2023/09/16 01:44:20;;;;;;;3.47;3.17;;;24.10;44.60;;;;;;5032212;28;20469;-61
2023/09/16 01:46:46;;;;;;;2.63;2.43;;;24.10;44.60;;;;;;5027967;28;20561;-58
2023/09/16 01:49:11;;;;;;;3.13;2.97;;;24.10;44.50;;;;;;5030582;28;20200;-59
2023/09/16 01:51:37;;;;;;;3.33;3.13;;;24.10;44.50;;;;;;5033217;28;20201;-59
2023/09/16 01:54:02;;;;;;;3.20;3.00;;;24.10;44.60;;;;;;5033600;28;20193;-61
2023/09/16 01:56:30;;;;;;;3.20;3.00;;;24.00;44.50;;;;;;5029922;28;20249;-63
2023/09/16 01:58:55;;;;;;;2.57;2.47;;;24.10;44.60;;;;;;5031545;28;20747;-58
2023/09/16 02:01:21;;;;;;;2.90;2.70;;;24.00;44.50;;;;;;5033052;28;20440;-58
2023/09/16 02:03:47;;;;;;;3.80;2.97;;;24.00;44.50;;;;;;5027990;28;20244;-61
2023/09/16 02:06:13;;;;;;;2.80;2.60;;;24.00;44.50;;;;;;5031953;28;20559;-63
2023/09/16 02:08:38;;;;;;;2.50;2.40;;;24.00;44.50;;;;;;5031119;28;20202;-60
2023/09/16 02:11:05;;;;;;;2.83;2.63;;;24.10;44.60;;;;;;5033073;28;20196;-61
2023/09/16 02:13:32;;;;;;;3.00;2.80;;;24.10;44.60;;;;;;5032808;28;20207;-61
2023/09/16 02:15:58;;;;;;;2.40;2.30;;;24.10;44.50;;;;;;5029106;28;20431;-61
2023/09/16 02:18:24;;;;;;;3.30;3.10;;;24.10;44.60;;;;;;5028613;28;20463;-62
2023/09/16 02:20:50;;;;;;;3.00;2.80;;;24.00;44.50;;;;;;5031109;28;20521;-60
2023/09/16 02:23:15;;;;;;;2.70;2.60;;;24.10;44.60;;;;;;5032136;28;20711;-59
2023/09/16 02:25:41;;;;;;;3.10;2.90;;;24.10;44.60;;;;;;5031735;28;20205;-59
2023/09/16 02:28:06;;;;;;;3.00;2.80;;;24.00;44.50;;;;;;5032745;28;20190;-61
2023/09/16 02:30:32;;;;;;;2.40;2.30;;;24.00;44.50;;;;;;5029399;28;20547;-59
2023/09/16 02:32:57;;;;;;;2.43;2.23;;;24.00;44.50;;;;;;5028590;28;20679;-59
2023/09/16 02:35:23;;;;;;;3.07;2.97;;;24.10;44.50;;;;;;5030499;28;20225;-60
2023/09/16 02:37:49;;;;;;;2.83;2.73;;;24.10;44.60;;;;;;5032478;28;20217;-59
2023/09/16 02:40:15;;;;;;;2.83;2.63;;;24.00;44.50;;;;;;5030603;28;20439;-59
2023/09/16 02:42:40;;;;;;;3.27;3.07;;;24.00;44.50;;;;;;5029863;28;20200;-61
2023/09/16 02:45:06;;;;;;;2.87;2.67;;;24.00;44.40;;;;;;5028516;28;20191;-59
2023/09/16 02:47:33;;;;;;;2.63;2.53;;;24.00;44.50;;;;;;5026444;28;20684;-58
2023/09/16 02:49:59;;;;;;;2.70;2.60;;;24.10;44.50;;;;;;5029463;28;20192;-63
2023/09/16 02:52:25;;;;;;;2.90;2.70;;;24.10;44.60;;;;;;5031201;28;20465;-59
2023/09/16 02:54:51;;;;;;;2.50;2.40;;;24.00;44.50;;;;;;5029179;28;20435;-60
2023/09/16 02:57:16;;;;;;;3.20;3.00;;;24.00;44.50;;;;;;5031904;28;20253;-60
2023/09/16 02:59:42;;;;;;;3.07;2.87;;;24.00;44.50;;;;;;5029559;28;20666;-58
2023/09/16 03:02:08;;;;;;;2.60;2.50;;;24.00;44.50;;;;;;5024315;28;20732;-60
2023/09/16 03:04:33;;;;;;;2.67;2.53;;;24.00;44.50;;;;;;5030902;28;20256;-64
2023/09/16 03:06:59;;;;;;;2.53;2.43;;;24.00;44.50;;;;;;5027938;28;22439;-59
2023/09/16 03:09:25;;;;;;;2.60;2.50;;;24.00;44.50;;;;;;5029421;28;20197;-60
2023/09/16 03:11:50;;;;;;;2.87;2.70;;;24.00;44.50;;;;;;5030696;28;20194;-58
2023/09/16 03:14:16;;;;;;;3.00;2.80;;;24.00;44.50;;;;;;5030753;28;20300;-60
2023/09/16 03:16:42;;;;;;;2.37;2.27;;;24.00;44.50;;;;;;5031963;28;20182;-58
2023/09/16 03:19:08;;;;;;;2.83;2.73;;;24.00;44.40;;;;;;5027047;28;20301;-62
2023/09/16 03:21:33;;;;;;;2.50;2.40;;;24.00;44.40;;;;;;5030366;28;20281;-59
2023/09/16 03:23:59;;;;;;;2.87;2.73;;;24.00;44.50;;;;;;5027228;28;20781;-62
2023/09/16 03:26:25;;;;;;;2.80;2.70;;;24.00;44.50;;;;;;5027418;28;20215;-59
2023/09/16 03:28:53;;;;;;;2.60;2.40;;;24.00;44.50;;;;;;5026020;28;20351;-59
2023/09/16 03:31:19;;;;;;;2.60;2.50;;;24.00;44.40;;;;;;5026234;28;20182;-61
2023/09/16 03:33:44;;;;;;;2.70;2.60;;;24.00;44.50;;;;;;5030223;28;20453;-62
2023/09/16 03:36:10;;;;;;;2.57;2.47;;;24.00;44.50;;;;;;5026811;28;20214;-60
2023/09/16 03:38:45;;;;;;;2.60;2.50;;;24.00;44.60;;;;;;5027255;28;20238;-62
2023/09/16 03:41:10;;;;;;;2.70;2.60;;;24.00;44.60;;;;;;5027597;28;20239;-60
2023/09/16 03:43:36;;;;;;;3.00;2.80;;;24.00;44.50;;;;;;5029815;28;20447;-61
2023/09/16 03:46:02;;;;;;;2.20;2.10;;;24.00;44.50;;;;;;5026552;28;20195;-60
2023/09/16 03:48:27;;;;;;;2.53;2.43;;;24.00;44.50;;;;;;5028276;28;20199;-61
2023/09/16 03:50:53;;;;;;;2.60;2.50;;;24.00;44.50;;;;;;5030292;28;20841;-62
2023/09/16 03:53:21;;;;;;;2.80;2.70;;;24.00;44.60;;;;;;5029371;28;20174;-62
2023/09/16 03:55:47;;;;;;;2.70;2.50;;;24.00;44.60;;;;;;5026989;28;20309;-64
2023/09/16 03:58:12;;;;;;;2.60;2.50;;;24.00;44.60;;;;;;5026838;28;20467;-61
2023/09/16 04:00:38;;;;;;;2.70;2.60;;;24.00;44.50;;;;;;5027458;28;21062;-62
2023/09/16 04:03:04;;;;;;;2.60;2.50;;;24.00;44.60;;;;;;5027078;28;21906;-61
2023/09/16 04:05:29;;;;;;;2.63;2.43;;;24.00;44.60;;;;;;5028289;28;20240;-65
2023/09/16 04:07:55;;;;;;;2.77;2.57;;;24.00;44.60;;;;;;5026882;28;20179;-62
2023/09/16 04:10:20;;;;;;;2.27;2.17;;;24.00;44.60;;;;;;5030388;28;20197;-59
2023/09/16 04:12:46;;;;;;;2.87;2.67;;;24.00;44.60;;;;;;5025160;28;20332;-61
2023/09/16 04:15:11;;;;;;;3.37;3.17;;;24.00;44.60;;;;;;5027184;28;20756;-62
2023/09/16 04:17:37;;;;;;;2.77;2.57;;;24.00;44.60;;;;;;5026342;28;20272;-59
2023/09/16 04:20:05;;;;;;;2.60;2.50;;;24.00;44.60;;;;;;5028365;28;20190;-64
2023/09/16 04:22:31;;;;;;;2.40;2.30;;;24.00;44.60;;;;;;5027079;28;20191;-60
2023/09/16 04:24:57;;;;;;;2.80;2.60;;;24.00;44.60;;;;;;5027969;28;20762;-62
2023/09/16 04:27:22;;;;;;;2.93;2.73;;;24.00;44.60;;;;;;5028364;28;20446;-60
2023/09/16 04:29:48;;;;;;;2.47;2.37;;;24.00;44.70;;;;;;5025838;28;20222;-62
2023/09/16 04:32:14;;;;;;;2.63;2.53;;;24.00;44.60;;;;;;5027555;28;20190;-58
2023/09/16 04:34:39;;;;;;;2.73;2.63;;;24.00;44.60;;;;;;5028383;28;20209;-61
2023/09/16 04:37:08;;;;;;;2.67;2.57;;;24.00;44.60;;;;;;5027976;28;20194;-58
2023/09/16 04:39:34;;;;;;;2.77;2.67;;;24.00;44.60;;;;;;5028000;28;20555;-63
2023/09/16 04:42:02;;;;;;;2.50;2.40;;;24.00;44.60;;;;;;5030565;28;20430;-64
2023/09/16 04:44:28;;;;;;;2.57;2.47;;;24.00;44.70;;;;;;5032821;28;20771;-58
2023/09/16 04:46:54;;;;;;;2.53;2.43;;;24.00;44.60;;;;;;5032818;28;20939;-59
2023/09/16 04:49:23;;;;;;;2.10;2.00;;;24.00;44.60;;;;;;5033160;28;20190;-61
2023/09/16 04:51:48;;;;;;;3.30;3.10;;;24.00;45.10;;;;;;5033092;28;20442;-59
2023/09/16 04:54:14;;;;;;;5.30;3.07;;;24.00;44.60;;;;;;5035395;28;20440;-59
2023/09/16 04:56:40;;;;;;;2.63;2.53;;;24.00;44.50;;;;;;5031948;28;20240;-61
2023/09/16 04:59:05;;;;;;;2.97;2.77;;;24.00;44.50;;;;;;5026174;28;20210;-61
2023/09/16 05:01:31;;;;;;;2.67;2.40;;;24.00;44.50;;;;;;5027455;28;20260;-58
2023/09/16 05:03:58;;;;;;;2.80;2.60;;;24.00;44.50;;;;;;5035205;28;20840;-60
2023/09/16 05:06:23;;;;;;;2.30;2.20;;;24.00;44.50;;;;;;5032208;28;20651;-62
2023/09/16 05:08:49;;;;;;;2.57;2.40;;;24.00;44.50;;;;;;5032473;28;20505;-61
2023/09/16 05:11:15;;;;;;;2.80;2.60;;;24.00;44.50;;;;;;5034464;28;20709;-61
2023/09/16 05:13:41;;;;;;;2.70;2.60;;;24.00;44.50;;;;;;5036889;28;20664;-61
2023/09/16 05:16:10;;;;;;;3.50;2.30;;;24.00;44.40;;;;;;5035876;28;20435;-62
2023/09/16 05:18:36;;;;;;;2.67;2.57;;;24.00;44.40;;;;;;5032147;28;20296;-64
2023/09/16 05:21:02;;;;;;;3.00;2.90;;;24.00;44.40;;;;;;5036670;28;20991;-61
2023/09/16 05:23:30;;;;;;;2.80;2.70;;;24.00;44.40;;;;;;5035312;28;20220;-60
2023/09/16 05:25:56;;;;;;;2.50;2.40;;;24.00;44.50;;;;;;5036205;28;20465;-60
2023/09/16 05:28:21;;;;;;;2.57;2.40;;;24.00;44.30;;;;;;5038012;28;21465;-59
2023/09/16 05:30:47;;;;;;;2.13;2.03;;;24.00;44.30;;;;;;5033646;28;20193;-64
2023/09/16 05:33:12;;;;;;;3.13;3.00;;;24.00;44.30;;;;;;5037081;28;20182;-59
2023/09/16 05:35:39;;;;;;;4.70;2.63;;;24.00;44.40;;;;;;5037333;28;20190;-61
2023/09/16 05:38:04;;;;;;;2.90;2.70;;;24.00;44.30;;;;;;5036348;28;20210;-58
2023/09/16 05:40:30;;;;;;;3.13;2.97;;;24.00;44.30;;;;;;5034747;28;20508;-64
2023/09/16 05:42:56;;;;;;;2.37;2.27;;;24.00;44.30;;;;;;5032873;28;20274;-60
2023/09/16 05:45:21;;;;;;;2.67;2.47;;;24.00;44.30;;;;;;5035284;28;20208;-59
2023/09/16 05:47:49;;;;;;;2.67;2.57;;;24.00;44.30;;;;;;5038666;28;20193;-62
2023/09/16 05:50:15;;;;;;;2.57;2.47;;;24.00;44.30;;;;;;5037368;28;20193;-59
2023/09/16 05:52:41;;;;;;;2.67;2.47;;;24.00;44.30;;;;;;5039434;28;20439;-60
2023/09/16 05:55:06;;;;;;;2.47;2.37;;;24.00;44.20;;;;;;5038165;28;20206;-63
2023/09/16 05:57:32;;;;;;;2.60;2.50;;;24.00;44.20;;;;;;5034749;28;20217;-64
2023/09/16 05:59:58;;;;;;;2.87;2.70;;;24.00;44.20;;;;;;5035904;28;20187;-59
2023/09/16 06:02:23;;;;;;;3.10;2.90;;;24.00;44.20;;;;;;5038852;28;20233;-60
2023/09/16 06:04:49;;;;;;;2.27;2.17;;;24.00;44.20;;;;;;5036110;28;20237;-59
2023/09/16 06:07:15;;;;;;;2.37;2.27;;;24.00;44.20;;;;;;5038003;28;20537;-59
2023/09/16 06:09:41;;;;;;;2.47;2.30;;;24.00;44.10;;;;;;5029438;28;20275;-60
2023/09/16 06:12:07;;;;;;;3.10;2.93;;;24.00;44.20;;;;;;5032274;28;20998;-59
2023/09/16 06:14:33;;;;;;;2.67;2.47;;;24.00;44.10;;;;;;5035690;28;20190;-60
2023/09/16 06:16:59;;;;;;;2.67;2.57;;;24.00;44.10;;;;;;5031677;28;20191;-59
2023/09/16 06:19:26;;;;;;;2.70;2.60;;;24.00;44.20;;;;;;5030572;28;20207;-60
2023/09/16 06:21:52;;;;;;;2.80;2.70;;;24.00;44.20;;;;;;5035756;28;20209;-59
2023/09/16 06:24:17;;;;;;;3.03;2.83;;;24.00;44.10;;;;;;5032681;28;20439;-60
2023/09/16 06:26:43;;;;;;;2.70;2.50;;;24.00;44.10;;;;;;5034371;28;20194;-59
2023/09/16 06:29:08;;;;;;;2.63;2.53;;;24.00;44.20;;;;;;5029360;28;20406;-58
2023/09/16 06:31:34;;;;;;;2.77;2.60;;;24.00;44.20;;;;;;5039152;28;20844;-60
2023/09/16 06:33:59;;;;;;;2.10;2.00;;;24.00;44.20;;;;;;5038056;28;20213;-63
2023/09/16 06:36:25;;;;;;;2.80;2.60;;;24.00;44.20;;;;;;5035615;28;20181;-60
2023/09/16 06:38:50;;;;;;;3.03;2.93;;;24.00;44.20;;;;;;5038195;28;20674;-59
2023/09/16 06:41:16;;;;;;;2.77;2.57;;;24.00;44.20;;;;;;5036865;28;20217;-60
2023/09/16 06:43:41;;;;;;;2.80;2.50;;;24.00;44.20;;;;;;5037548;28;20202;-60
2023/09/16 06:46:07;;;;;;;2.70;2.60;;;24.00;44.20;;;;;;5036938;28;20670;-59
2023/09/16 06:48:32;;;;;;;2.60;2.50;;;24.00;44.10;;;;;;5038714;28;20190;-61
2023/09/16 06:50:58;;;;;;;2.97;2.70;;;24.00;44.20;;;;;;5031354;28;20191;-60
2023/09/16 06:53:23;;;;;;;2.70;2.60;;;24.00;44.30;;;;;;5028573;28;20831;-60
2023/09/16 06:55:49;;;;;;;2.40;2.30;;;24.00;44.20;;;;;;5028633;28;20224;-61
2023/09/16 06:58:14;;;;;;;2.70;2.50;;;24.00;44.20;;;;;;5027267;28;20676;-59
2023/09/16 07:00:40;;;;;;;3.10;2.90;;;24.00;44.20;;;;;;5031624;28;20206;-64
2023/09/16 07:03:06;;;;;;;2.73;2.63;;;24.00;44.20;;;;;;5034411;28;20186;-64
2023/09/16 07:05:31;;;;;;;2.70;2.53;;;24.00;44.20;;;;;;5034431;28;20258;-61
2023/09/16 07:07:58;;;;;;;2.70;2.60;;;24.00;44.20;;;;;;5039707;28;20190;-64
2023/09/16 07:10:24;;;;;;;2.43;2.33;;;24.00;44.20;;;;;;5030861;28;20642;-62
2023/09/16 07:12:50;;;;;;;2.70;2.60;;;24.00;44.30;;;;;;5032829;28;20922;-62
2023/09/16 07:15:16;;;;;;;3.53;3.23;;;24.00;44.20;;;;;;5027515;28;20455;-58
2023/09/16 07:17:41;;;;;;;2.70;2.60;;;24.00;44.30;;;;;;5033029;28;20259;-59
2023/09/16 07:20:07;;;;;;;3.03;2.93;;;24.00;44.30;;;;;;5033088;28;20682;-61
2023/09/16 07:22:32;;;;;;;2.73;2.63;;;24.00;44.40;;;;;;5036749;28;20965;-59
2023/09/16 07:24:58;;;;;;;3.07;2.87;;;24.00;44.30;;;;;;5036418;28;20190;-61
2023/09/16 07:27:23;;;;;;;2.90;2.80;;;24.00;44.40;;;;;;5038574;28;20233;-60
2023/09/16 07:29:49;;;;;;;2.90;2.70;;;24.00;44.30;;;;;;5037981;28;22005;-58
2023/09/16 07:32:14;;;;;;;2.20;2.10;;;24.00;44.30;;;;;;5036230;28;20292;-60
2023/09/16 07:34:40;;;;;;;2.70;2.60;;;24.00;44.30;;;;;;5038162;28;21458;-61
2023/09/16 07:37:05;;;;;;;2.70;2.60;;;24.00;44.40;;;;;;5036173;28;20202;-58
2023/09/16 07:39:31;;;;;;;2.40;2.30;;;24.00;44.30;;;;;;5032750;28;20198;-57
2023/09/16 07:41:57;;;;;;;2.73;2.60;;;24.00;44.50;;;;;;5041927;28;20197;-60
2023/09/16 07:44:22;;;;;;;2.67;2.47;;;24.00;44.50;;;;;;5032900;28;20191;-64
2023/09/16 07:46:48;;;;;;;3.10;2.90;;;24.00;44.50;;;;;;5029641;28;20206;-62
2023/09/16 07:49:14;;;;;;;3.07;2.87;;;24.00;44.50;;;;;;5038519;28;20198;-60
2023/09/16 07:51:40;;;;;;;2.43;2.33;;;24.10;44.60;;;;;;5035991;28;20423;-61
2023/09/16 07:54:08;;;;;;;2.37;2.27;;;24.00;44.50;;;;;;5035835;28;20449;-59
2023/09/16 07:56:34;;;;;;;2.73;2.63;;;24.00;44.50;;;;;;5032294;28;20197;-67
2023/09/16 07:59:00;;;;;;;2.87;2.77;;;24.00;44.60;;;;;;5034587;28;20459;-60
2023/09/16 08:01:25;;;;;;;2.20;2.10;;;24.00;44.50;;;;;;5035202;28;20213;-61
2023/09/16 08:03:51;;;;;;;2.50;2.40;;;24.00;44.60;;;;;;5036622;28;20313;-60
2023/09/16 08:06:16;;;;;;;2.47;2.37;;;24.10;44.60;;;;;;5034437;28;20659;-59
2023/09/16 08:08:42;;;;;;;2.60;2.50;;;24.00;44.60;;;;;;5038487;28;20289;-63
2023/09/16 08:11:07;;;;;;;4.53;2.83;;;24.00;44.60;;;;;;5033507;28;20296;-62
2023/09/16 08:13:33;;;;;;;3.53;2.90;;;24.00;44.60;;;;;;5035443;28;21025;-63
2023/09/16 08:15:59;;;;;;;2.30;2.20;;;24.00;44.60;;;;;;5031614;28;20270;-60
2023/09/16 08:18:24;;;;;;;2.50;2.40;;;24.10;44.70;;;;;;5036136;28;20217;-63
2023/09/16 08:20:50;;;;;;;2.43;2.33;;;24.10;44.70;;;;;;5032402;28;20260;-62
2023/09/16 08:23:16;;;;;;;2.60;2.50;;;24.00;44.60;;;;;;5034769;28;20270;-63
2023/09/16 08:25:41;;;;;;;2.47;2.37;;;24.00;44.60;;;;;;5034120;28;20324;-62
2023/09/16 08:28:07;;;;;;;4.83;3.27;;;24.00;44.70;;;;;;5030051;28;21887;-59
2023/09/16 08:30:32;;;;;;;3.23;3.03;;;24.10;44.80;;;;;;5033408;28;20303;-63
2023/09/16 08:32:58;;;;;;;3.57;3.37;;;24.00;44.60;;;;;;5035849;28;20646;-62
2023/09/16 08:35:25;;;;;;;4.80;4.40;;;24.10;44.80;;;;;;5031202;28;20209;-66
2023/09/16 08:37:51;;;;;;;3.90;3.50;;;24.10;44.80;;;;;;5028733;28;20206;-65
2023/09/16 08:40:17;;;;;;;7.77;5.53;;;24.10;44.80;;;;;;5029793;28;20448;-60
2023/09/16 08:42:54;;;;;;;5.90;5.40;;;24.10;44.80;;;;;;5030477;28;20945;-64
2023/09/16 08:45:23;;;;;;;4.80;4.40;;;24.10;44.90;;;;;;5033746;28;21257;-61
2023/09/16 08:47:57;;;;;;;4.90;4.50;;;24.10;44.80;;;;;;5031735;28;20434;-62
2023/09/16 08:50:24;;;;;;;5.33;4.80;;;24.10;44.90;;;;;;5031447;28;20460;-61
2023/09/16 08:52:53;;;;;;;4.30;4.10;;;24.10;44.90;;;;;;5035512;28;20438;-63
2023/09/16 08:55:19;;;;;;;4.33;4.03;;;24.10;44.90;;;;;;5028280;28;20443;-65
2023/09/16 08:57:59;;;;;;;4.80;4.40;;;24.10;44.90;;;;;;5029564;28;20534;-64
2023/09/16 09:00:25;;;;;;;5.47;5.07;;;24.10;44.90;;;;;;5028052;28;20452;-60
2023/09/16 09:02:51;;;;;;;4.77;4.37;;;24.10;44.90;;;;;;5029726;28;20468;-62
2023/09/16 09:05:18;;;;;;;4.67;4.27;;;24.10;44.90;;;;;;5029404;28;20230;-68
2023/09/16 09:07:44;;;;;;;4.60;4.17;;;24.10;44.90;;;;;;5030527;28;21809;-64
2023/09/16 09:10:12;;;;;;;5.23;4.93;;;24.10;44.90;;;;;;5027516;28;22217;-61
2023/09/16 09:12:40;;;;;;;4.60;4.20;;;24.10;45.10;;;;;;5030821;28;20277;-64
2023/09/16 09:15:10;;;;;;;4.53;4.23;;;24.10;45.00;;;;;;5029543;28;20442;-60
2023/09/16 09:17:39;;;;;;;6.47;4.30;;;24.10;45.80;;;;;;5031505;28;20458;-69
2023/09/16 09:20:07;;;;;;;4.93;4.60;;;24.10;44.90;;;;;;5029535;28;20439;-64
2023/09/16 09:22:36;;;;;;;4.17;3.80;;;24.10;45.00;;;;;;5024159;28;20523;-68
2023/09/16 09:25:02;;;;;;;4.00;3.73;;;24.10;45.00;;;;;;5030476;28;20442;-63
2023/09/16 09:27:28;;;;;;;4.60;4.20;;;24.20;45.10;;;;;;5034873;28;20865;-60
2023/09/16 09:29:54;;;;;;;4.20;3.90;;;24.20;45.10;;;;;;5029291;28;20287;-62
2023/09/16 09:32:21;;;;;;;4.03;3.83;;;24.20;45.80;;;;;;5031745;28;20525;-66
2023/09/16 09:34:46;;;;;;;4.30;4.00;;;24.10;45.00;;;;;;5030230;28;20206;-63
2023/09/16 09:37:16;;;;;;;4.13;3.93;;;24.20;45.10;;;;;;5030506;28;20438;-64
2023/09/16 09:39:42;;;;;;;4.30;3.87;;;24.10;45.00;;;;;;5028069;28;20852;-65
2023/09/16 09:42:07;;;;;;;4.47;4.17;;;24.10;45.00;;;;;;5029933;28;20449;-61
2023/09/16 09:44:34;;;;;;;3.60;3.40;;;24.20;45.10;;;;;;5032137;28;20196;-64
2023/09/16 09:47:00;;;;;;;4.60;4.30;;;24.20;45.10;;;;;;5031970;28;20182;-63
2023/09/16 09:49:26;;;;;;;3.70;3.50;;;24.20;45.10;;;;;;5032836;28;20447;-64
2023/09/16 09:51:52;;;;;;;4.03;3.83;;;24.20;45.10;;;;;;5029888;28;20958;-59
2023/09/16 09:54:18;;;;;;;4.20;4.00;;;24.10;45.00;;;;;;5032581;28;20439;-69
2023/09/16 09:56:43;;;;;;;4.30;4.00;;;24.20;45.10;;;;;;5031596;28;20186;-62
2023/09/16 09:59:09;;;;;;;3.57;3.27;;;24.20;45.10;;;;;;5032203;28;20206;-60
2023/09/16 10:01:35;;;;;;;3.40;3.20;;;24.10;45.00;;;;;;5027934;28;20306;-62
2023/09/16 10:04:02;;;;;;;4.20;3.93;;;24.10;45.00;;;;;;5038192;28;20669;-66
2023/09/16 10:06:27;;;;;;;4.03;3.73;;;24.10;45.00;;;;;;5032699;28;20190;-63
2023/09/16 10:08:53;;;;;;;4.20;3.90;;;24.20;45.20;;;;;;5033106;28;20454;-62
2023/09/16 10:11:20;;;;;;;3.70;3.50;;;24.20;45.20;;;;;;5029682;28;20761;-65
2023/09/16 10:13:50;;;;;;;3.83;3.43;;;24.20;45.10;;;;;;5032232;28;20201;-61
2023/09/16 10:16:15;;;;;;;3.63;3.43;;;24.20;45.20;;;;;;5034514;28;20493;-61
2023/09/16 10:18:42;;;;;;;3.47;3.27;;;24.20;45.10;;;;;;5027768;28;20463;-60
2023/09/16 10:21:07;;;;;;;3.30;3.10;;;24.10;45.00;;;;;;5032238;28;20635;-62
2023/09/16 10:23:33;;;;;;;3.83;3.60;;;24.20;45.20;;;;;;5032377;28;20443;-61
2023/09/16 10:25:59;;;;;;;3.80;3.60;;;24.20;45.20;;;;;;5034816;28;20193;-60
2023/09/16 10:28:25;;;;;;;3.60;3.30;;;24.20;45.20;;;;;;5038064;28;20497;-67
2023/09/16 10:30:51;;;;;;;3.30;3.10;;;24.20;45.20;;;;;;5025766;28;20194;-67
2023/09/16 10:33:19;;;;;;;3.23;3.03;;;24.20;45.20;;;;;;5031719;28;20560;-66
2023/09/16 10:35:44;;;;;;;3.77;3.57;;;24.20;45.20;;;;;;5031830;28;20598;-61
2023/09/16 10:38:12;;;;;;;3.53;3.33;;;24.20;45.20;;;;;;5031560;28;20471;-65
2023/09/16 10:40:38;;;;;;;4.43;3.23;;;24.20;45.30;;;;;;5033578;28;20198;-62
2023/09/16 10:43:05;;;;;;;3.50;3.30;;;24.20;45.30;;;;;;5030350;28;20554;-60
2023/09/16 10:45:31;;;;;;;3.47;3.27;;;24.20;45.30;;;;;;5030255;28;20431;-64
2023/09/16 10:48:01;;;;;;;3.60;3.40;;;24.20;45.30;;;;;;5033887;28;20438;-67
2023/09/16 10:50:30;;;;;;;3.70;3.50;;;24.20;45.30;;;;;;5032877;28;20443;-61
2023/09/16 10:53:05;;;;;;;4.63;4.33;;;24.20;45.30;;;;;;5032727;28;20461;-62
2023/09/16 10:55:53;;;;;;;3.80;3.60;;;24.20;45.40;;;;;;5033677;28;20436;-62
2023/09/16 10:58:33;;;;;;;5.40;3.20;;;24.20;45.40;;;;;;5032550;28;20498;-63
2023/09/16 11:01:01;;;;;;;3.70;3.40;;;24.20;45.40;;;;;;5032084;28;20537;-67
2023/09/16 11:03:33;;;;;;;3.00;2.90;;;24.20;45.50;;;;;;5030457;28;20494;-60
2023/09/16 11:06:01;;;;;;;3.40;3.20;;;24.20;45.50;;;;;;5026667;28;20485;-64
2023/09/16 11:08:27;;;;;;;4.03;3.83;;;24.20;45.60;;;;;;5033728;28;20529;-60
2023/09/16 11:10:55;;;;;;;3.40;3.20;;;24.20;45.60;;;;;;5032261;28;20450;-61
2023/09/16 11:13:26;;;;;;;4.27;4.07;;;24.20;45.60;;;;;;5031707;28;20431;-61
2023/09/16 11:15:52;;;;;;;3.80;3.60;;;24.20;45.60;;;;;;5027783;28;20791;-62
2023/09/16 11:18:19;;;;;;;4.03;3.83;;;24.20;45.70;;;;;;5028493;28;20474;-63
2023/09/16 11:20:46;;;;;;;4.60;4.20;;;24.20;45.70;;;;;;5031909;28;20197;-63
2023/09/16 11:23:12;;;;;;;3.20;3.00;;;24.20;45.70;;;;;;5031141;28;20554;-61
2023/09/16 11:25:43;;;;;;;3.60;3.40;;;24.20;45.80;;;;;;5031902;28;20883;-61
2023/09/16 11:28:10;;;;;;;3.77;3.47;;;24.30;45.90;;;;;;5033343;28;20427;-59
2023/09/16 11:30:37;;;;;;;3.43;3.23;;;24.20;45.80;;;;;;5032578;28;20438;-65
2023/09/16 11:33:04;;;;;;;4.27;3.97;;;24.20;45.80;;;;;;5028919;28;22376;-60
2023/09/16 11:35:31;;;;;;;6.60;3.80;;;24.20;45.80;;;;;;5027799;28;22391;-66
2023/09/16 11:37:57;;;;;;;5.67;4.00;;;24.20;45.80;;;;;;5030189;28;20458;-60
2023/09/16 11:40:27;;;;;;;6.00;4.40;;;24.30;45.90;;;;;;5028608;28;20535;-61
2023/09/16 11:42:53;;;;;;;7.57;4.73;;;24.30;45.90;;;;;;5029480;28;20462;-60
2023/09/16 11:45:20;;;;;;;5.00;4.30;;;24.30;45.80;;;;;;5027542;28;20931;-66
2023/09/16 11:47:48;;;;;;;4.53;4.23;;;24.30;45.80;;;;;;5030479;28;20533;-63
2023/09/16 11:50:39;;;;;;;9.33;4.73;;;24.30;45.80;;;;;;5030339;28;20454;-59
2023/09/16 11:53:05;;;;;;;4.20;3.90;;;24.30;45.80;;;;;;5025871;28;20451;-59
2023/09/16 11:55:31;;;;;;;6.80;4.50;;;24.30;45.80;;;;;;5029452;28;20450;-60
2023/09/16 11:57:57;;;;;;;6.97;4.80;;;24.30;45.80;;;;;;5028856;28;20209;-62
2023/09/16 12:00:23;;;;;;;5.27;4.40;;;24.40;45.90;;;;;;5029779;28;20269;-60
2023/09/16 12:02:49;;;;;;;4.97;4.40;;;24.40;46.00;;;;;;5027037;28;21456;-61
2023/09/16 12:05:16;;;;;;;10.67;4.17;;;24.40;46.00;;;;;;5026001;28;20237;-60
2023/09/16 12:07:42;;;;;;;7.70;4.50;;;24.40;46.00;;;;;;5027616;28;20209;-60
2023/09/16 12:10:08;;;;;;;6.40;3.90;;;24.40;46.10;;;;;;5028865;28;20441;-62
2023/09/16 12:12:34;;;;;;;8.43;3.90;;;24.40;46.10;;;;;;5031509;28;20527;-59
2023/09/16 12:15:01;;;;;;;7.87;4.93;;;24.40;46.10;;;;;;5029419;28;20800;-60
2023/09/16 12:17:26;;;;;;;7.50;3.80;;;24.40;46.10;;;;;;5046455;28;20318;-60
2023/09/16 12:19:54;;;;;;;14.17;4.93;;;24.40;46.20;;;;;;5032205;28;20939;-63
2023/09/16 12:22:21;;;;;;;10.27;4.33;;;24.40;46.10;;;;;;5030672;28;20297;-63
2023/09/16 12:24:47;;;;;;;8.23;4.30;;;24.40;46.90;;;;;;5032450;28;20613;-61
2023/09/16 12:27:13;;;;;;;7.50;4.50;;;24.40;46.10;;;;;;5030785;28;21015;-63
2023/09/16 12:29:38;;;;;;;12.83;4.53;;;24.40;46.10;;;;;;5030896;28;20394;-61
2023/09/16 12:32:09;;;;;;;99.53;11.50;;;24.40;46.10;;;;;;5030354;28;20186;-60
2023/09/16 12:34:35;;;;;;;9.37;4.90;;;24.40;46.10;;;;;;5029673;28;20182;-64
2023/09/16 12:37:02;;;;;;;10.07;3.60;;;24.40;46.10;;;;;;5031320;28;20838;-61
2023/09/16 12:39:29;;;;;;;8.63;4.60;;;24.40;46.10;;;;;;5028963;28;20740;-67
2023/09/16 12:41:58;;;;;;;8.33;4.20;;;24.40;46.10;;;;;;5030350;28;22168;-70